»·PEaware :: N16RD KNYL-KONT

N16RD :: KNYL-KONT

FLIGHT INFORMATION

Flight Status: Arrived
Operator: Privately registered:
United States
More flights under this callsign
Pilot: Brett B. (12105)
Aircraft: CESSNA R182 TURBO SKYLANE
(C82R)
More flights by this aircraft type
Origin: KNYL Yuma MCAS/Yuma Intl
United States
Destination: KONT Ontario Intl
United States
More flights between these airports :: More routes between these airports
Route: +KNYL KONT
File this flight plan on PilotEdge
Remarks: alphabet challenge
Altitude:
(Current/Filed)
9,500ft
Speed:
(Current/Filed)
145kts
Departed: 28-Oct-17 11:17 AM
Arrived: 28-Oct-17 01:14 PM
Distance/Time
Traveled:
171nm/1:57
Distance/Time
To Go:
Arrived

Flight Plot

Page will automatically refresh every two minutes.

Flight plan parsing failed; only flown route is shown


Map Options




Map Legend


Flown Route
Filed Route
Departure Airport
Arrival Airport
Navaid (VOR, NDB)
Fix

Horizontal Profiles

Position Reports

Time Latitude Longitude Heading Altitude Ground
Speed
28-Oct-17 11:16 38.661869 -90.634570 257 466ft 0kts
28-Oct-17 11:17 38.661869 -90.634570 257 466ft 0kts
28-Oct-17 11:18 38.661869 -90.634570 257 466ft 0kts
28-Oct-17 11:19 38.661869 -90.634570 257 466ft 0kts
28-Oct-17 11:20 38.661869 -90.634570 257 466ft 0kts
28-Oct-17 11:21 38.661869 -90.634571 258 466ft 0kts
28-Oct-17 11:22 38.657201 -90.660934 256 871ft 103kts
28-Oct-17 11:23 38.653273 -90.697309 287 2145ft 103kts
28-Oct-17 11:24 38.674060 -90.712661 34 3295ft 118kts
28-Oct-17 11:25 38.683775 -90.671481 86 4141ft 125kts
28-Oct-17 11:26 38.662031 -90.638480 183 4741ft 130kts
28-Oct-17 11:27 38.633648 -90.670535 229 3793ft 138kts
28-Oct-17 11:28 38.634829 -90.709371 317 3000ft 119kts
28-Oct-17 11:29 38.649272 -90.697416 91 1913ft 87kts
28-Oct-17 11:30 38.651297 -90.666656 76 1469ft 83kts
28-Oct-17 11:31 38.654263 -90.638709 76 1512ft 80kts
28-Oct-17 11:32 38.667570 -90.622012 350 1501ft 74kts
28-Oct-17 11:33 38.667811 -90.645777 261 840ft 75kts
28-Oct-17 11:34 38.665264 -90.661396 256 466ft 16kts
28-Oct-17 11:35 38.663246 -90.661655 167 466ft 20kts
28-Oct-17 11:36 38.660269 -90.656727 129 466ft 5kts
28-Oct-17 11:37 38.660174 -90.652849 54 466ft 15kts
28-Oct-17 11:38 38.661373 -90.648827 75 466ft 14kts
28-Oct-17 11:39 38.662157 -90.644778 33 466ft 15kts
28-Oct-17 11:40 38.663445 -90.646720 170 466ft 0kts
28-Oct-17 11:41 38.662386 -90.645238 315 466ft 0kts
28-Oct-17 11:42 38.662399 -90.645271 288 466ft 0kts
28-Oct-17 11:43 38.662399 -90.645271 288 466ft 0kts
28-Oct-17 11:44 38.662399 -90.645271 288 466ft 0kts
28-Oct-17 11:45 38.662399 -90.645271 288 466ft 0kts
28-Oct-17 11:46 38.662399 -90.645271 288 466ft 0kts
28-Oct-17 11:47 38.662399 -90.645271 288 466ft 0kts
28-Oct-17 11:48 32.660193 -114.594732 45 219ft 0kts
28-Oct-17 11:49 32.660193 -114.594732 45 219ft 0kts
28-Oct-17 11:50 32.660193 -114.594732 45 219ft 0kts
28-Oct-17 11:51 32.660193 -114.594732 45 219ft 0kts
28-Oct-17 11:52 32.660193 -114.594732 45 219ft 0kts
28-Oct-17 11:53 32.660193 -114.594732 45 219ft 0kts
28-Oct-17 11:54 32.660193 -114.594732 45 219ft 0kts
28-Oct-17 11:55 32.660193 -114.594732 45 219ft 0kts
28-Oct-17 11:56 32.660194 -114.594732 45 219ft 0kts
28-Oct-17 11:57 32.660194 -114.594731 45 219ft 0kts
28-Oct-17 11:58 32.662133 -114.591852 47 219ft 15kts
28-Oct-17 11:59 32.666100 -114.591697 266 219ft 21kts
28-Oct-17 12:00 32.665927 -114.602039 268 219ft 25kts
28-Oct-17 12:01 32.665916 -114.605845 88 219ft 0kts
28-Oct-17 12:02 32.665953 -114.601859 90 219ft 77kts
28-Oct-17 12:03 32.666804 -114.565804 72 1090ft 117kts
28-Oct-17 12:04 32.690124 -114.573464 281 2093ft 121kts
28-Oct-17 12:05 32.698990 -114.617821 289 2601ft 134kts
28-Oct-17 12:06 32.710293 -114.655857 315 3587ft 113kts
28-Oct-17 12:07 32.732964 -114.679437 319 4567ft 103kts
28-Oct-17 12:08 32.753206 -114.701635 319 5534ft 94kts
28-Oct-17 12:09 32.764665 -114.728513 294 6485ft 91kts
28-Oct-17 12:10 32.771418 -114.756370 294 7302ft 91kts
28-Oct-17 12:11 32.783493 -114.789145 310 7756ft 124kts
28-Oct-17 12:12 32.805493 -114.825417 312 8103ft 143kts
28-Oct-17 12:13 32.830083 -114.864728 307 8405ft 153kts
28-Oct-17 12:14 32.856673 -114.907249 306 8498ft 167kts
28-Oct-17 12:15 32.884577 -114.951794 302 8495ft 166kts
28-Oct-17 12:16 32.912239 -114.996160 303 8496ft 167kts
28-Oct-17 12:17 32.940054 -115.040691 302 8503ft 165kts
28-Oct-17 12:18 32.966941 -115.082967 302 8654ft 152kts
28-Oct-17 12:19 32.989540 -115.125448 301 8442ft 152kts
28-Oct-17 12:20 33.009844 -115.168860 300 8427ft 147kts
28-Oct-17 12:21 33.029380 -115.211449 301 8474ft 145kts
28-Oct-17 12:22 33.049717 -115.253598 303 8473ft 148kts
28-Oct-17 12:23 33.071308 -115.295837 305 8473ft 149kts
28-Oct-17 12:24 33.093791 -115.336490 305 8533ft 145kts
28-Oct-17 12:25 33.117950 -115.375420 309 8541ft 146kts
28-Oct-17 12:26 33.143424 -115.413422 311 8538ft 147kts
28-Oct-17 12:27 33.170194 -115.450781 313 8540ft 148kts
28-Oct-17 12:28 33.197908 -115.486935 316 8563ft 147kts
28-Oct-17 12:29 33.226813 -115.521830 312 8546ft 151kts
28-Oct-17 12:30 33.258644 -115.554484 322 8764ft 143kts
28-Oct-17 12:31 33.289285 -115.583681 323 8969ft 138kts
28-Oct-17 12:32 33.319234 -115.611551 323 9262ft 135kts
28-Oct-17 12:33 33.344141 -115.644213 293 9562ft 137kts
28-Oct-17 12:34 33.354314 -115.688465 285 9861ft 138kts
28-Oct-17 12:35 33.367920 -115.732415 291 10266ft 155kts
28-Oct-17 12:36 33.386683 -115.775589 300 10455ft 138kts
28-Oct-17 12:37 33.406298 -115.816683 300 10461ft 145kts
28-Oct-17 12:38 33.425278 -115.859996 299 10451ft 147kts
28-Oct-17 12:39 33.443945 -115.903507 299 10449ft 147kts
28-Oct-17 12:40 33.463358 -115.946354 310 10448ft 145kts
28-Oct-17 12:41 33.493027 -115.979165 320 10449ft 144kts
28-Oct-17 12:42 33.523525 -116.010650 320 10450ft 144kts
28-Oct-17 12:43 33.553403 -116.043314 311 10442ft 145kts
28-Oct-17 12:44 33.579024 -116.080877 311 10447ft 145kts
28-Oct-17 12:45 33.604950 -116.118078 312 10448ft 145kts
28-Oct-17 12:46 33.631385 -116.155013 312 10439ft 145kts
28-Oct-17 12:47 33.658183 -116.191363 313 10440ft 145kts
28-Oct-17 12:48 33.685539 -116.227211 314 10439ft 145kts
28-Oct-17 12:49 33.713887 -116.261640 317 10460ft 144kts
28-Oct-17 12:50 33.743468 -116.294134 319 10474ft 144kts
28-Oct-17 12:51 33.773475 -116.326256 319 10510ft 144kts
28-Oct-17 12:52 33.803582 -116.358478 319 10508ft 145kts
28-Oct-17 12:53 33.833754 -116.390777 319 10504ft 145kts
28-Oct-17 12:54 33.863956 -116.423297 315 10505ft 145kts
28-Oct-17 12:55 33.871606 -116.471329 275 10506ft 149kts
28-Oct-17 12:56 33.871970 -116.521753 274 10506ft 150kts
28-Oct-17 12:57 33.872882 -116.572229 274 10503ft 151kts
28-Oct-17 12:58 33.873795 -116.622649 274 10499ft 151kts
28-Oct-17 12:59 33.874967 -116.676763 274 9802ft 167kts
28-Oct-17 13:00 33.876369 -116.733182 274 9009ft 169kts
28-Oct-17 13:01 33.877756 -116.789127 274 8483ft 160kts
28-Oct-17 13:02 33.878726 -116.840550 275 8481ft 149kts
28-Oct-17 13:03 33.886830 -116.893136 284 7806ft 168kts
28-Oct-17 13:04 33.896153 -116.949275 284 7011ft 172kts
28-Oct-17 13:05 33.911970 -117.002866 294 6499ft 163kts
28-Oct-17 13:06 33.927670 -117.052459 294 6501ft 155kts
28-Oct-17 13:07 33.942902 -117.100669 294 6505ft 154kts
28-Oct-17 13:08 33.959122 -117.151602 294 6028ft 172kts
28-Oct-17 13:09 33.980858 -117.204663 294 5245ft 180kts
28-Oct-17 13:10 33.999881 -117.249592 294 4619ft 179kts
28-Oct-17 13:11 34.020969 -117.299145 295 4455ft 157kts
28-Oct-17 13:12 34.046258 -117.353076 295 4188ft 158kts
28-Oct-17 13:13 34.057786 -117.393636 274 3302ft 160kts
28-Oct-17 13:14 34.056179 -117.440647 260 2857ft 109kts
28-Oct-17 13:15 34.055542 -117.473988 268 2733ft 99kts
28-Oct-17 13:16 34.055787 -117.507428 270 2437ft 100kts
28-Oct-17 13:17 34.054872 -117.543132 265 1840ft 107kts
28-Oct-17 13:18 34.054938 -117.579108 268 1067ft 99kts
28-Oct-17 13:19 34.054353 -117.594168 245 947ft 0kts
28-Oct-17 13:20 34.054352 -117.594168 245 947ft 0kts
28-Oct-17 13:21 34.053872 -117.589435 91 947ft 32kts
28-Oct-17 13:22 34.052890 -117.582567 160 947ft 18kts
28-Oct-17 13:23 34.052157 -117.580642 0 947ft 0kts
28-Oct-17 13:24 34.052157 -117.580642 0 947ft 0kts
28-Oct-17 13:25 34.052157 -117.580642 0 947ft 0kts
28-Oct-17 13:26 34.052157 -117.580642 0 947ft 0kts
28-Oct-17 13:27 34.052157 -117.580642 0 947ft 0kts
28-Oct-17 13:28 34.052157 -117.580642 0 947ft 0kts
28-Oct-17 13:29 34.052157 -117.580642 0 947ft 0kts
28-Oct-17 13:30 34.052157 -117.580642 0 947ft 0kts
28-Oct-17 13:31 34.052157 -117.580642 0 947ft 0kts
28-Oct-17 13:32 34.052157 -117.580642 0 947ft 0kts
28-Oct-17 13:33 34.052157 -117.580642 0 947ft 0kts

Navigation Log

Ident Type
Flight plan parsing failed, navigation log unavailable